createdAt,value
2023-04-21T00:00:55.762Z,20.67
2023-04-21T00:03:24.296Z,24.47
2023-04-21T00:05:51.754Z,17.38
2023-04-21T00:08:18.969Z,21.27
2023-04-21T00:10:46.792Z,20.98
2023-04-21T00:13:14.285Z,24.23
2023-04-21T00:15:41.284Z,16.23
2023-04-21T00:18:07.931Z,18.83
2023-04-21T00:20:34.533Z,20.02
2023-04-21T00:23:01.184Z,23.33
2023-04-21T00:25:28.099Z,18.00
2023-04-21T00:27:54.608Z,19.83
2023-04-21T00:30:21.270Z,19.52
2023-04-21T00:32:47.888Z,18.95
2023-04-21T00:35:14.414Z,16.25
2023-04-21T00:37:41.625Z,20.50
2023-04-21T00:40:09.057Z,24.23
2023-04-21T00:42:35.728Z,26.05
2023-04-21T00:45:03.833Z,21.77
2023-04-21T00:47:31.242Z,22.45
2023-04-21T00:49:58.977Z,28.65
2023-04-21T00:52:26.550Z,30.70
2023-04-21T00:54:53.684Z,25.92
2023-04-21T00:57:21.472Z,29.42
2023-04-21T00:59:48.071Z,26.42
2023-04-21T01:02:16.168Z,24.00
2023-04-21T01:04:43.963Z,17.17
2023-04-21T01:07:10.603Z,23.67
2023-04-21T01:09:37.300Z,22.42
2023-04-21T01:12:10.262Z,24.25
2023-04-21T01:14:38.843Z,24.13
2023-04-21T01:17:06.164Z,20.03
2023-04-21T01:19:35.739Z,22.13
2023-04-21T01:22:04.132Z,26.63
2023-04-21T01:24:44.948Z,25.38
2023-04-21T01:27:14.381Z,23.88
2023-04-21T01:29:42.597Z,23.97
2023-04-21T01:32:15.621Z,21.88
2023-04-21T01:34:42.429Z,26.60
2023-04-21T01:37:17.534Z,26.50
2023-04-21T01:39:52.226Z,26.50
2023-04-21T01:42:19.822Z,28.03
2023-04-21T01:44:46.995Z,25.52
2023-04-21T01:47:17.366Z,26.08
2023-04-21T01:49:43.848Z,25.83
2023-04-21T01:52:10.468Z,18.80
2023-04-21T01:54:37.048Z,22.33
2023-04-21T01:57:04.196Z,18.70
2023-04-21T01:59:30.889Z,29.75
2023-04-21T02:01:57.663Z,31.45
2023-04-21T02:04:24.407Z,29.67
2023-04-21T02:06:51.180Z,26.37
2023-04-21T02:09:18.201Z,27.52
2023-04-21T02:11:45.166Z,22.45
2023-04-21T02:14:11.935Z,24.67
2023-04-21T02:16:40.594Z,24.30
2023-04-21T02:19:07.560Z,27.63
2023-04-21T02:21:34.096Z,27.60
2023-04-21T02:24:00.598Z,20.45
2023-04-21T02:26:27.101Z,25.35
2023-04-21T02:28:54.096Z,26.48
2023-04-21T02:31:20.681Z,28.57
2023-04-21T02:33:48.395Z,29.23
2023-04-21T02:36:15.307Z,32.00
2023-04-21T02:38:41.825Z,34.58
2023-04-21T02:41:10.042Z,29.88
2023-04-21T02:43:36.619Z,26.07
2023-04-21T02:46:07.585Z,28.13
2023-04-21T02:48:35.358Z,21.15
2023-04-21T02:51:02.129Z,23.75
2023-04-21T02:53:29.056Z,25.92
2023-04-21T02:55:56.397Z,26.37
2023-04-21T02:58:23.599Z,28.60
2023-04-21T03:00:50.253Z,33.00
2023-04-21T03:03:16.965Z,35.70
2023-04-21T03:05:43.727Z,34.05
2023-04-21T03:08:10.288Z,34.63
2023-04-21T03:10:37.836Z,34.58
2023-04-21T03:13:04.449Z,35.05
2023-04-21T03:15:32.066Z,36.70
2023-04-21T03:18:01.365Z,33.13
2023-04-21T03:20:28.132Z,34.83
2023-04-21T03:22:54.630Z,28.75
2023-04-21T03:25:21.762Z,28.17
2023-04-21T03:27:48.294Z,25.17
2023-04-21T03:30:15.350Z,32.85
2023-04-21T03:32:41.959Z,29.77
2023-04-21T03:35:08.502Z,20.88
2023-04-21T03:37:35.073Z,24.67
2023-04-21T03:40:01.712Z,27.80
2023-04-21T03:42:30.117Z,30.00
2023-04-21T03:44:57.142Z,30.00
2023-04-21T03:47:24.050Z,28.17
2023-04-21T03:49:51.572Z,27.30
2023-04-21T03:52:18.071Z,28.35
2023-04-21T03:54:44.658Z,28.55
2023-04-21T03:57:11.378Z,24.33
2023-04-21T03:59:37.969Z,23.65
2023-04-21T04:02:04.706Z,23.20
2023-04-21T04:04:31.753Z,29.60
2023-04-21T04:06:58.623Z,25.70
2023-04-21T04:09:25.316Z,22.83
2023-04-21T04:11:51.851Z,24.27
2023-04-21T04:14:18.346Z,29.17
2023-04-21T04:16:44.944Z,23.55
2023-04-21T04:19:11.825Z,21.27
2023-04-21T04:21:38.956Z,20.27
2023-04-21T04:24:05.684Z,22.63
2023-04-21T04:26:35.768Z,25.05
2023-04-21T04:29:02.397Z,21.30
2023-04-21T04:31:30.284Z,21.25
2023-04-21T04:33:57.512Z,18.07
2023-04-21T04:36:25.061Z,17.42
2023-04-21T04:38:51.781Z,22.00
2023-04-21T04:41:19.588Z,27.02
2023-04-21T04:43:46.501Z,24.58
2023-04-21T04:46:13.381Z,25.77
2023-04-21T04:48:40.498Z,23.75
2023-04-21T04:51:07.060Z,22.52
2023-04-21T04:53:33.541Z,22.33
2023-04-21T04:56:00.042Z,25.63
2023-04-21T04:58:26.826Z,34.80
2023-04-21T05:00:53.327Z,20.48
2023-04-21T05:03:20.169Z,23.13
2023-04-21T05:05:46.824Z,26.17
2023-04-21T05:08:14.612Z,16.42
2023-04-21T05:10:42.914Z,26.90
2023-04-21T05:13:09.512Z,26.88
2023-04-21T05:15:36.054Z,26.40
2023-04-21T05:18:02.708Z,26.75
2023-04-21T05:20:29.379Z,24.33
2023-04-21T05:22:55.952Z,27.83
2023-04-21T05:25:22.462Z,28.65
2023-04-21T05:27:49.142Z,26.08
2023-04-21T05:30:16.135Z,26.48
2023-04-21T05:32:42.759Z,24.90
2023-04-21T05:35:09.710Z,25.93
2023-04-21T05:37:36.284Z,28.02
2023-04-21T05:40:02.821Z,29.02
2023-04-21T05:42:29.339Z,28.05
2023-04-21T05:44:55.845Z,32.10
2023-04-21T05:47:22.395Z,20.50
2023-04-21T05:49:53.430Z,23.40
2023-04-21T05:52:21.645Z,24.05
2023-04-21T05:54:48.298Z,28.13
2023-04-21T05:57:16.212Z,25.38
2023-04-21T05:59:43.695Z,26.00
2023-04-21T06:02:11.322Z,25.65
2023-04-21T06:04:38.401Z,25.45
2023-04-21T06:07:07.046Z,23.25
2023-04-21T06:09:34.397Z,26.13
2023-04-21T06:12:01.747Z,27.17
2023-04-21T06:14:28.291Z,26.52
2023-04-21T06:16:54.795Z,28.83
2023-04-21T06:19:21.329Z,26.83
2023-04-21T06:21:47.863Z,31.67
2023-04-21T06:24:14.464Z,29.20
2023-04-21T06:26:40.994Z,28.70
2023-04-21T06:29:07.546Z,24.45
2023-04-21T06:31:34.083Z,26.23
2023-04-21T06:34:00.759Z,25.65
2023-04-21T06:36:27.434Z,28.53
2023-04-21T06:38:53.993Z,26.20
2023-04-21T06:41:22.224Z,27.08
2023-04-21T06:43:50.227Z,28.13
2023-04-21T06:46:16.750Z,23.58
2023-04-21T06:48:43.326Z,26.77
2023-04-21T06:51:09.861Z,27.52
2023-04-21T06:53:37.589Z,25.10
2023-04-21T06:56:04.250Z,23.48
2023-04-21T06:58:30.762Z,23.98
2023-04-21T07:00:57.367Z,25.43
2023-04-21T07:03:24.501Z,22.70
2023-04-21T07:05:51.135Z,26.35
2023-04-21T07:08:17.690Z,26.90
2023-04-21T07:10:44.199Z,22.85
2023-04-21T07:13:10.764Z,24.07
2023-04-21T07:15:37.258Z,28.05
2023-04-21T07:18:03.927Z,23.92
2023-04-21T07:20:30.508Z,25.88
2023-04-21T07:22:57.038Z,29.08
2023-04-21T07:25:23.568Z,26.03
2023-04-21T07:27:50.217Z,29.23
2023-04-21T07:30:16.951Z,25.08
2023-04-21T07:32:43.776Z,29.05
2023-04-21T07:35:10.326Z,29.77
2023-04-21T07:37:36.953Z,24.17
2023-04-21T07:40:03.994Z,22.70
2023-04-21T07:42:30.559Z,25.70
2023-04-21T07:44:57.615Z,26.40
2023-04-21T07:47:24.269Z,26.05
2023-04-21T07:49:50.833Z,25.30
2023-04-21T07:52:17.361Z,28.88
2023-04-21T07:54:43.934Z,30.67
2023-04-21T07:57:10.939Z,27.40
2023-04-21T07:59:37.414Z,25.50
2023-04-21T08:02:04.155Z,29.50
2023-04-21T08:04:31.236Z,25.83
2023-04-21T08:06:58.524Z,26.30
2023-04-21T08:09:25.278Z,27.15
2023-04-21T08:11:51.918Z,25.77
2023-04-21T08:14:18.633Z,22.53
2023-04-21T08:16:46.976Z,28.90
2023-04-21T08:19:13.638Z,28.67
2023-04-21T08:21:40.312Z,27.45
2023-04-21T08:24:07.026Z,24.02
2023-04-21T08:26:35.341Z,24.67
2023-04-21T08:29:03.992Z,27.52
2023-04-21T08:31:31.164Z,26.63
2023-04-21T08:34:01.974Z,27.45
2023-04-21T08:36:30.104Z,26.17
2023-04-21T08:38:57.163Z,30.67
2023-04-21T08:41:24.900Z,24.88
2023-04-21T08:43:51.542Z,25.38
2023-04-21T08:46:19.034Z,33.20
2023-04-21T08:48:47.339Z,26.50
2023-04-21T08:51:21.589Z,28.40
2023-04-21T08:53:48.121Z,35.28
2023-04-21T08:56:14.953Z,27.10
2023-04-21T08:58:41.960Z,25.77
2023-04-21T09:01:08.842Z,31.60
2023-04-21T09:03:35.710Z,27.47
2023-04-21T09:06:10.216Z,24.33
2023-04-21T09:08:52.217Z,30.70
2023-04-21T09:11:19.673Z,31.63
2023-04-21T09:13:46.217Z,27.35
2023-04-21T09:16:18.611Z,27.17
2023-04-21T09:18:45.285Z,31.05
2023-04-21T09:21:13.919Z,26.95
2023-04-21T09:23:46.265Z,29.80
2023-04-21T09:26:13.923Z,31.02
2023-04-21T09:28:45.028Z,29.37
2023-04-21T09:31:24.591Z,30.15
2023-04-21T09:34:00.055Z,29.35
2023-04-21T09:36:29.790Z,31.23
2023-04-21T09:41:33.368Z,31.73
2023-04-21T09:44:04.456Z,26.45
2023-04-21T09:46:34.343Z,27.63
2023-04-21T09:49:02.152Z,28.67
2023-04-21T09:51:49.136Z,27.40
2023-04-21T09:56:53.784Z,25.00
2023-04-21T09:59:26.062Z,24.77
2023-04-21T10:01:54.040Z,28.50
2023-04-21T10:04:22.818Z,27.08
2023-04-21T10:06:51.152Z,28.53
2023-04-21T10:09:21.245Z,24.38
2023-04-21T10:11:48.144Z,27.50
2023-04-21T10:14:14.815Z,25.45
2023-04-21T10:16:42.844Z,29.48
2023-04-21T10:19:31.944Z,25.43
2023-04-21T10:21:59.053Z,30.35
2023-04-21T10:24:29.974Z,26.58
2023-04-21T10:26:59.742Z,28.00
2023-04-21T10:29:37.473Z,28.38
2023-04-21T10:32:31.524Z,28.00
2023-04-21T10:34:58.246Z,28.55
2023-04-21T10:37:24.730Z,30.20
2023-04-21T10:39:53.627Z,30.77
2023-04-21T10:42:22.965Z,28.33
2023-04-21T10:44:56.438Z,28.03
2023-04-21T10:47:44.301Z,29.73
2023-04-21T10:50:20.386Z,25.48
2023-04-21T10:52:53.629Z,25.40
2023-04-21T10:55:21.937Z,25.33
2023-04-21T10:57:49.313Z,30.03
2023-04-21T11:00:18.682Z,28.50
2023-04-21T11:02:54.071Z,25.77
2023-04-21T11:05:26.666Z,28.05
2023-04-21T11:08:02.398Z,26.55
2023-04-21T11:10:28.968Z,28.83
2023-04-21T11:12:57.924Z,27.52
2023-04-21T11:15:24.444Z,29.50
2023-04-21T11:17:51.274Z,29.98
2023-04-21T11:20:17.897Z,29.15
2023-04-21T11:22:44.385Z,29.10
2023-04-21T11:25:19.631Z,28.80
2023-04-21T11:27:56.832Z,26.73
2023-04-21T11:30:36.855Z,27.85
2023-04-21T11:33:03.490Z,26.98
2023-04-21T11:35:31.640Z,28.13
2023-04-21T11:37:58.218Z,30.15
2023-04-21T11:40:24.721Z,27.85
2023-04-21T11:42:51.255Z,26.15
2023-04-21T11:45:21.930Z,26.73
2023-04-21T11:47:48.989Z,25.80
2023-04-21T11:50:31.939Z,24.75
2023-04-21T11:52:58.541Z,24.25
2023-04-21T11:55:25.087Z,27.33
2023-04-21T11:57:51.616Z,23.90
2023-04-21T12:00:18.883Z,28.00
2023-04-21T12:02:54.718Z,24.70
2023-04-21T12:05:22.349Z,29.48
2023-04-21T12:07:48.945Z,26.17
2023-04-21T12:10:19.183Z,25.33
2023-04-21T12:12:46.246Z,24.37
2023-04-21T12:15:28.788Z,23.40
2023-04-21T12:17:55.468Z,28.17
2023-04-21T12:20:23.465Z,23.23
2023-04-21T12:22:50.591Z,28.63
2023-04-21T12:25:17.233Z,26.07
2023-04-21T12:27:51.065Z,26.95
2023-04-21T12:30:17.915Z,27.42
2023-04-21T12:32:44.630Z,23.10
2023-04-21T12:35:11.274Z,29.63
2023-04-21T12:37:37.792Z,26.23
2023-04-21T12:40:05.571Z,26.75
2023-04-21T12:42:32.137Z,23.85
2023-04-21T12:44:58.708Z,26.17
2023-04-21T12:47:25.361Z,26.17
2023-04-21T12:49:51.894Z,25.00
2023-04-21T12:52:18.479Z,25.80
2023-04-21T12:54:44.983Z,26.48
2023-04-21T12:57:11.579Z,23.73
2023-04-21T12:59:38.063Z,21.70
2023-04-21T13:02:04.829Z,28.47
2023-04-21T13:04:32.313Z,29.45
2023-04-21T13:06:59.364Z,23.27
2023-04-21T13:09:26.010Z,21.02
2023-04-21T13:11:52.549Z,24.02
2023-04-21T13:14:19.071Z,25.40
2023-04-21T13:16:45.844Z,24.17
2023-04-21T13:19:12.419Z,24.58
2023-04-21T13:21:39.002Z,23.35
2023-04-21T13:24:05.932Z,24.05
2023-04-21T13:26:35.087Z,22.40
2023-04-21T13:29:02.980Z,21.77
2023-04-21T13:31:29.752Z,25.25
2023-04-21T13:33:56.736Z,24.58
2023-04-21T13:36:23.286Z,25.23
2023-04-21T13:38:51.035Z,22.30
2023-04-21T13:41:17.598Z,23.67
2023-04-21T13:43:44.141Z,23.80
2023-04-21T13:46:10.869Z,22.20
2023-04-21T13:48:37.448Z,25.15
2023-04-21T13:51:04.279Z,22.57
2023-04-21T13:53:31.088Z,25.48
2023-04-21T13:55:59.253Z,22.77
2023-04-21T13:58:25.913Z,24.25
2023-04-21T14:00:52.457Z,24.20
2023-04-21T14:03:19.490Z,22.97
2023-04-21T14:05:46.269Z,21.33
2023-04-21T14:08:12.814Z,22.30
2023-04-21T14:10:39.406Z,22.45
2023-04-21T14:13:05.928Z,22.02
2023-04-21T14:15:32.480Z,22.23
2023-04-21T14:18:00.479Z,22.67
2023-04-21T14:20:27.482Z,20.23
2023-04-21T14:22:54.186Z,21.20
2023-04-21T14:25:20.980Z,24.27
2023-04-21T14:27:47.633Z,21.73
2023-04-21T14:30:14.646Z,22.02
2023-04-21T14:32:45.672Z,24.42
2023-04-21T14:35:13.449Z,22.63
2023-04-21T14:37:40.845Z,22.50
2023-04-21T14:40:08.731Z,21.50
2023-04-21T14:42:35.776Z,21.60
2023-04-21T14:45:02.316Z,23.08
2023-04-21T14:47:29.113Z,23.73
2023-04-21T14:49:55.930Z,23.00
2023-04-21T14:52:25.695Z,21.33
2023-04-21T14:54:52.605Z,19.75
2023-04-21T14:57:21.740Z,24.40
2023-04-21T14:59:52.622Z,20.45
2023-04-21T15:02:20.694Z,22.10
2023-04-21T15:04:47.628Z,22.77
2023-04-21T15:07:15.111Z,20.58
2023-04-21T15:09:47.465Z,24.10
2023-04-21T15:12:14.680Z,22.48
2023-04-21T15:14:41.255Z,24.08
2023-04-21T15:17:07.791Z,25.00
2023-04-21T15:19:34.563Z,25.00
2023-04-21T15:22:01.252Z,22.80
2023-04-21T15:24:27.784Z,24.38
2023-04-21T15:26:54.510Z,27.35
2023-04-21T15:29:21.141Z,27.13
2023-04-21T15:35:34.469Z,26.17
2023-04-21T15:38:00.995Z,27.83
2023-04-21T15:40:27.617Z,25.38
2023-04-21T15:42:54.161Z,27.23
2023-04-21T15:45:20.830Z,25.58
2023-04-21T15:47:47.476Z,23.30
2023-04-21T15:50:14.028Z,25.08
2023-04-21T15:52:43.302Z,25.30
2023-04-21T15:55:12.966Z,25.00
2023-04-21T15:57:39.550Z,23.08
2023-04-21T16:00:07.225Z,25.58
2023-04-21T16:02:34.011Z,23.70
2023-04-21T16:05:01.202Z,25.85
2023-04-21T16:07:28.479Z,26.77
2023-04-21T16:09:55.318Z,25.45
2023-04-21T16:12:21.861Z,22.88
2023-04-21T16:14:57.519Z,24.27
2023-04-21T16:17:28.208Z,22.58
2023-04-21T16:19:54.853Z,24.17
2023-04-21T16:22:21.460Z,27.45
2023-04-21T16:24:48.458Z,24.00
2023-04-21T16:27:15.463Z,23.15
2023-04-21T16:29:42.015Z,23.02
2023-04-21T16:32:08.673Z,23.53
2023-04-21T16:34:35.607Z,25.67
2023-04-21T16:37:02.360Z,24.48
2023-04-21T16:39:28.964Z,24.92
2023-04-21T16:41:55.574Z,21.88
2023-04-21T16:44:22.112Z,23.07
2023-04-21T16:46:48.644Z,22.80
2023-04-21T16:49:15.364Z,24.67
2023-04-21T16:51:44.880Z,22.50
2023-04-21T16:54:11.839Z,22.65
2023-04-21T16:56:38.739Z,22.83
2023-04-21T16:59:05.451Z,23.27
2023-04-21T17:01:32.345Z,22.17
2023-04-21T17:03:59.106Z,25.77
2023-04-21T17:06:25.726Z,20.58
2023-04-21T17:08:59.365Z,25.83
2023-04-21T17:11:27.533Z,29.48
2023-04-21T17:13:54.138Z,27.55
2023-04-21T17:16:21.025Z,25.33
2023-04-21T17:18:47.652Z,23.75
2023-04-21T17:21:14.192Z,24.37
2023-04-21T17:23:40.984Z,25.73
2023-04-21T17:26:08.197Z,27.10
2023-04-21T17:28:35.850Z,24.85
2023-04-21T17:31:14.340Z,24.90
2023-04-21T17:33:42.430Z,26.30
2023-04-21T17:36:08.975Z,23.45
2023-04-21T17:38:35.537Z,27.10
2023-04-21T17:41:02.937Z,23.63
2023-04-21T17:43:29.419Z,27.20
2023-04-21T17:45:56.021Z,24.40
2023-04-21T17:48:22.677Z,23.92
2023-04-21T17:50:49.252Z,25.25
2023-04-21T17:53:16.277Z,23.80
2023-04-21T17:55:43.009Z,25.48
2023-04-21T17:58:12.285Z,28.03
2023-04-21T18:00:39.319Z,24.83
2023-04-21T18:03:05.968Z,24.27
2023-04-21T18:05:32.686Z,25.23
2023-04-21T18:07:59.444Z,25.02
2023-04-21T18:10:27.639Z,24.93
2023-04-21T18:12:56.371Z,27.65
2023-04-21T18:15:22.854Z,25.52
2023-04-21T18:17:49.600Z,23.77
2023-04-21T18:20:16.218Z,27.65
2023-04-21T18:22:44.504Z,26.80
2023-04-21T18:25:11.893Z,25.95
2023-04-21T18:27:39.360Z,24.02
2023-04-21T18:30:07.423Z,24.25
2023-04-21T18:32:34.677Z,27.77
2023-04-21T18:35:02.006Z,28.10
2023-04-21T18:37:28.556Z,28.50
2023-04-21T18:39:55.165Z,23.40
2023-04-21T18:42:21.694Z,20.95
2023-04-21T18:44:48.242Z,21.23
2023-04-21T18:47:15.682Z,20.10
2023-04-21T18:49:42.338Z,17.27
2023-04-21T18:52:09.437Z,16.10
2023-04-21T18:54:36.301Z,13.00
2023-04-21T18:57:04.012Z,11.48
2023-04-21T18:59:30.900Z,15.17
2023-04-21T19:01:57.791Z,14.82
2023-04-21T19:04:24.583Z,13.85
2023-04-21T19:06:51.132Z,14.13
2023-04-21T19:09:17.670Z,16.15
2023-04-21T19:11:44.445Z,17.13
2023-04-21T19:14:10.998Z,15.65
2023-04-21T19:16:38.086Z,16.35
2023-04-21T19:19:05.178Z,15.93
2023-04-21T19:21:33.047Z,16.50
2023-04-21T19:23:59.731Z,16.47
2023-04-21T19:26:26.341Z,15.13
2023-04-21T19:28:52.858Z,15.02
2023-04-21T19:31:21.496Z,17.05
2023-04-21T19:33:49.437Z,18.10
2023-04-21T19:36:16.047Z,14.33
2023-04-21T19:38:43.061Z,16.85
2023-04-21T19:41:09.621Z,15.60
2023-04-21T19:43:36.170Z,16.73
2023-04-21T19:46:02.806Z,18.10
2023-04-21T19:48:29.415Z,18.73
2023-04-21T19:50:56.024Z,17.08
2023-04-21T19:53:23.161Z,19.33
2023-04-21T19:55:52.543Z,19.58
2023-04-21T19:58:32.128Z,26.70
2023-04-21T20:01:06.077Z,18.93
2023-04-21T20:03:33.248Z,18.20
2023-04-21T20:06:01.588Z,20.45
2023-04-21T20:08:29.073Z,18.63
2023-04-21T20:10:55.634Z,20.80
2023-04-21T20:13:22.164Z,16.87
2023-04-21T20:15:48.839Z,23.20
2023-04-21T20:18:15.402Z,20.40
2023-04-21T20:20:41.985Z,22.20
2023-04-21T20:23:08.630Z,21.80
2023-04-21T20:25:35.308Z,19.20
2023-04-21T20:28:01.850Z,19.77
2023-04-21T20:30:28.349Z,20.02
2023-04-21T20:32:54.884Z,22.33
2023-04-21T20:35:21.473Z,19.98
2023-04-21T20:37:48.104Z,21.30
2023-04-21T20:40:14.793Z,19.70
2023-04-21T20:42:45.098Z,23.45
2023-04-21T20:45:12.808Z,20.45
2023-04-21T20:47:39.584Z,17.73
2023-04-21T20:50:07.267Z,18.00
2023-04-21T20:52:33.922Z,17.58
2023-04-21T20:55:00.435Z,19.98
2023-04-21T20:57:27.262Z,20.67
2023-04-21T20:59:53.889Z,17.58
2023-04-21T21:02:20.644Z,19.37
2023-04-21T21:04:47.754Z,20.83
2023-04-21T21:07:14.750Z,22.50
2023-04-21T21:09:41.505Z,22.98
2023-04-21T21:12:08.176Z,21.40
2023-04-21T21:14:34.718Z,20.67
2023-04-21T21:17:01.522Z,20.52
2023-04-21T21:19:28.165Z,21.15
2023-04-21T21:21:54.681Z,20.90
2023-04-21T21:24:21.245Z,19.65
2023-04-21T21:26:48.011Z,18.30
2023-04-21T21:29:14.564Z,17.02
2023-04-21T21:31:41.126Z,16.58
2023-04-21T21:34:07.683Z,15.80
2023-04-21T21:36:34.426Z,13.40
2023-04-21T21:39:00.922Z,11.50
2023-04-21T21:41:27.514Z,8.15
2023-04-21T21:43:54.000Z,9.85
2023-04-21T21:46:22.079Z,6.90
2023-04-21T21:48:49.487Z,7.22
2023-04-21T21:51:16.160Z,7.20
2023-04-21T21:53:42.704Z,7.90
2023-04-21T21:56:09.315Z,7.25
2023-04-21T21:58:36.283Z,6.75
2023-04-21T22:01:02.843Z,7.75
2023-04-21T22:03:29.487Z,6.80
2023-04-21T22:05:56.324Z,7.43
2023-04-21T22:08:22.838Z,6.78
2023-04-21T22:10:49.341Z,7.82
2023-04-21T22:13:15.875Z,6.20
2023-04-21T22:15:42.639Z,9.70
2023-04-21T22:18:09.679Z,7.70
2023-04-21T22:20:36.170Z,11.15
2023-04-21T22:23:03.653Z,8.50
2023-04-21T22:25:30.582Z,8.20
2023-04-21T22:27:57.579Z,7.20
2023-04-21T22:30:24.262Z,7.43
2023-04-21T22:32:50.870Z,7.07
2023-04-21T22:35:17.504Z,7.05
2023-04-21T22:37:43.971Z,7.05
2023-04-21T22:40:10.860Z,7.23
2023-04-21T22:42:37.503Z,7.40
2023-04-21T22:45:05.372Z,8.60
2023-04-21T22:47:32.737Z,6.78
2023-04-21T22:49:59.566Z,7.25
2023-04-21T22:52:26.866Z,7.20
2023-04-21T22:54:53.896Z,7.03
2023-04-21T22:57:21.563Z,6.85
2023-04-21T22:59:48.127Z,5.70
2023-04-21T23:02:14.793Z,6.93
2023-04-21T23:04:41.419Z,5.93
2023-04-21T23:07:08.044Z,7.68
2023-04-21T23:09:34.577Z,5.22
2023-04-21T23:12:01.465Z,6.43
2023-04-21T23:14:28.054Z,8.18
2023-04-21T23:16:54.778Z,6.47
2023-04-21T23:19:21.288Z,6.00
2023-04-21T23:21:47.840Z,6.85
2023-04-21T23:24:14.412Z,8.68
2023-04-21T23:26:41.137Z,6.72
2023-04-21T23:29:07.665Z,8.20
2023-04-21T23:31:34.410Z,6.53
2023-04-21T23:34:00.950Z,5.82
2023-04-21T23:36:27.717Z,7.00
2023-04-21T23:38:54.211Z,6.43
2023-04-21T23:41:21.335Z,6.37
2023-04-21T23:43:47.989Z,6.80
2023-04-21T23:46:15.103Z,5.88
2023-04-21T23:48:41.910Z,6.10
2023-04-21T23:51:08.516Z,6.75
2023-04-21T23:53:35.178Z,7.97
2023-04-21T23:56:01.693Z,6.60
2023-04-21T23:58:28.176Z,5.80
